createdAt,value
2023-12-30T00:00:35.583Z,4.53
2023-12-30T00:05:37.100Z,7.90
2023-12-30T00:10:38.518Z,1.95
2023-12-30T00:15:39.910Z,3.58
2023-12-30T00:20:41.372Z,3.45
2023-12-30T00:25:42.779Z,1.27
2023-12-30T00:30:44.306Z,1.50
2023-12-30T00:35:46.316Z,4.82
2023-12-30T00:40:47.719Z,3.78
2023-12-30T00:45:49.603Z,6.20
2023-12-30T00:50:51.049Z,7.25
2023-12-30T00:55:52.466Z,3.63
2023-12-30T01:00:54.015Z,4.43
2023-12-30T01:05:55.481Z,4.18
2023-12-30T01:10:56.857Z,1.27
2023-12-30T01:15:58.354Z,1.50
2023-12-30T01:20:59.744Z,2.45
2023-12-30T01:26:01.243Z,2.90
2023-12-30T01:31:02.858Z,3.25
2023-12-30T01:36:05.026Z,1.70
2023-12-30T01:41:06.486Z,2.97
2023-12-30T01:46:11.045Z,1.35
2023-12-30T01:51:24.319Z,1.02
2023-12-30T01:56:28.566Z,1.58
2023-12-30T02:01:30.470Z,2.92
2023-12-30T02:06:31.906Z,1.10
2023-12-30T02:11:33.505Z,1.10
2023-12-30T02:16:34.911Z,2.63
2023-12-30T02:21:36.340Z,3.13
2023-12-30T02:26:37.716Z,4.25
2023-12-30T02:31:47.432Z,4.90
2023-12-30T02:36:49.405Z,1.95
2023-12-30T02:41:50.918Z,1.55
2023-12-30T02:46:52.501Z,1.63
2023-12-30T02:51:55.067Z,3.80
2023-12-30T02:56:57.105Z,2.75
2023-12-30T03:01:58.781Z,0.63
2023-12-30T03:07:00.254Z,1.70
2023-12-30T03:12:03.270Z,3.30
2023-12-30T03:17:04.962Z,7.25
2023-12-30T03:22:06.355Z,3.45
2023-12-30T03:27:07.759Z,3.35
2023-12-30T03:32:09.128Z,2.83
2023-12-30T03:37:11.000Z,4.75
2023-12-30T03:42:12.463Z,0.57
2023-12-30T03:47:14.270Z,2.22
2023-12-30T03:52:15.709Z,3.92
2023-12-30T03:57:17.109Z,2.25
2023-12-30T04:02:22.061Z,0.40
2023-12-30T04:07:23.714Z,1.05
2023-12-30T04:12:26.021Z,1.48
2023-12-30T04:17:27.627Z,5.82
2023-12-30T04:22:29.873Z,5.63
2023-12-30T04:27:31.463Z,3.38
2023-12-30T04:32:32.906Z,5.82
2023-12-30T04:37:34.309Z,3.40
2023-12-30T04:42:35.873Z,5.32
2023-12-30T04:47:37.252Z,3.90
2023-12-30T04:52:38.711Z,0.55
2023-12-30T04:57:42.322Z,4.50
2023-12-30T05:02:43.792Z,1.95
2023-12-30T05:07:45.459Z,2.72
2023-12-30T05:12:47.117Z,5.30
2023-12-30T05:17:48.592Z,3.08
2023-12-30T05:22:49.990Z,0.95
2023-12-30T05:27:51.340Z,2.00
2023-12-30T05:32:52.762Z,2.83
2023-12-30T05:37:54.332Z,1.80
2023-12-30T05:42:55.737Z,4.53
2023-12-30T05:47:57.186Z,5.75
2023-12-30T05:52:58.909Z,4.70
2023-12-30T05:58:00.358Z,3.25
2023-12-30T06:03:01.935Z,5.07
2023-12-30T06:08:03.696Z,2.42
2023-12-30T06:13:05.353Z,0.75
2023-12-30T06:18:07.070Z,2.10
2023-12-30T06:23:08.493Z,4.78
2023-12-30T06:28:10.317Z,2.33
2023-12-30T06:33:11.810Z,5.35
2023-12-30T06:38:15.331Z,3.67
2023-12-30T06:43:17.972Z,4.95
2023-12-30T06:48:21.320Z,7.20
2023-12-30T06:53:22.786Z,7.25
2023-12-30T06:58:24.174Z,4.85
2023-12-30T07:03:25.662Z,3.65
2023-12-30T07:08:27.064Z,3.17
2023-12-30T07:13:28.517Z,4.35
2023-12-30T07:18:29.949Z,1.23
2023-12-30T07:23:31.319Z,7.47
2023-12-30T07:28:32.925Z,8.48
2023-12-30T07:33:36.791Z,9.95
2023-12-30T07:38:38.261Z,10.68
2023-12-30T07:43:39.650Z,5.88
2023-12-30T07:48:41.435Z,4.72
2023-12-30T07:53:42.862Z,3.33
2023-12-30T07:58:44.256Z,3.70
2023-12-30T08:03:45.840Z,8.52
2023-12-30T08:08:47.322Z,2.65
2023-12-30T08:13:48.756Z,7.65
2023-12-30T08:18:50.191Z,2.00
2023-12-30T08:23:51.647Z,7.00
2023-12-30T08:28:53.976Z,6.75
2023-12-30T08:33:55.584Z,2.97
2023-12-30T08:38:57.078Z,5.20
2023-12-30T08:43:58.459Z,2.38
2023-12-30T08:49:01.229Z,2.75
2023-12-30T08:54:03.069Z,7.32
2023-12-30T08:59:05.068Z,3.00
2023-12-30T09:04:06.738Z,3.72
2023-12-30T09:09:08.546Z,4.82
2023-12-30T09:14:09.923Z,5.68
2023-12-30T09:19:11.431Z,4.20
2023-12-30T09:24:12.905Z,4.80
2023-12-30T09:29:14.373Z,3.13
2023-12-30T09:34:20.894Z,5.10
2023-12-30T09:39:28.004Z,2.67
2023-12-30T09:44:29.813Z,3.47
2023-12-30T09:49:35.325Z,4.35
2023-12-30T09:54:48.065Z,8.27
2023-12-30T09:59:52.210Z,7.18
2023-12-30T10:04:55.548Z,4.00
2023-12-30T10:09:56.983Z,3.72
2023-12-30T10:14:58.373Z,4.28
2023-12-30T10:19:59.860Z,7.88
2023-12-30T10:25:03.069Z,3.45
2023-12-30T10:30:05.096Z,3.92
2023-12-30T10:35:06.750Z,3.55
2023-12-30T10:40:11.807Z,5.18
2023-12-30T10:45:13.277Z,5.97
2023-12-30T10:50:15.692Z,8.93
2023-12-30T10:55:19.130Z,4.97
2023-12-30T11:00:23.732Z,5.07
2023-12-30T11:05:32.821Z,5.50
2023-12-30T11:10:34.958Z,7.50
2023-12-30T11:15:39.227Z,8.65
2023-12-30T11:20:47.285Z,3.28
2023-12-30T11:25:49.565Z,4.72
2023-12-30T11:31:02.037Z,4.50
2023-12-30T11:36:04.802Z,7.15
2023-12-30T11:41:06.945Z,2.72
2023-12-30T11:46:08.478Z,2.67
2023-12-30T11:51:10.358Z,6.47
2023-12-30T11:56:12.601Z,8.32
2023-12-30T12:01:14.275Z,5.75
2023-12-30T12:06:16.397Z,6.70
2023-12-30T12:11:18.086Z,4.13
2023-12-30T12:16:19.645Z,4.25
2023-12-30T12:21:22.003Z,5.38
2023-12-30T12:26:24.194Z,6.10
2023-12-30T12:31:31.802Z,4.00
2023-12-30T12:36:33.636Z,2.78
2023-12-30T12:41:36.214Z,3.05
2023-12-30T12:46:38.411Z,5.55
2023-12-30T12:51:40.631Z,6.28
2023-12-30T12:56:43.974Z,2.63
2023-12-30T13:01:46.311Z,5.10
2023-12-30T13:06:48.297Z,2.60
2023-12-30T13:11:49.648Z,4.28
2023-12-30T13:16:51.035Z,1.92
2023-12-30T13:21:53.614Z,6.93
2023-12-30T13:26:59.254Z,4.93
2023-12-30T13:32:00.926Z,2.90
2023-12-30T13:37:06.925Z,4.45
2023-12-30T13:42:10.932Z,1.37
2023-12-30T13:47:24.898Z,2.97
2023-12-30T13:52:28.959Z,6.63
2023-12-30T13:57:33.079Z,4.15
2023-12-30T14:02:41.774Z,2.28
2023-12-30T14:07:44.786Z,2.47
2023-12-30T14:12:46.787Z,6.05
2023-12-30T14:17:48.389Z,4.10
2023-12-30T14:22:49.947Z,5.15
2023-12-30T14:27:51.382Z,4.95
2023-12-30T14:32:52.840Z,4.07
2023-12-30T14:37:54.565Z,2.40
2023-12-30T14:42:56.235Z,4.40
2023-12-30T14:47:57.885Z,3.40
2023-12-30T14:52:59.287Z,5.82
2023-12-30T14:58:00.786Z,10.85
2023-12-30T15:03:02.524Z,3.13
2023-12-30T15:08:04.588Z,4.38
2023-12-30T15:13:06.372Z,4.63
2023-12-30T15:18:08.043Z,1.20
2023-12-30T15:23:10.506Z,4.13
2023-12-30T15:28:11.906Z,5.32
2023-12-30T15:33:13.446Z,3.25
2023-12-30T15:38:14.976Z,5.57
2023-12-30T15:43:16.665Z,6.75
2023-12-30T15:48:18.324Z,6.40
2023-12-30T15:53:19.989Z,6.25
2023-12-30T15:58:21.497Z,7.68
2023-12-30T16:03:23.188Z,4.38
2023-12-30T16:08:24.690Z,4.95
2023-12-30T16:13:26.160Z,4.35
2023-12-30T16:18:30.721Z,5.70
2023-12-30T16:23:32.130Z,8.10
2023-12-30T16:28:34.407Z,5.22
2023-12-30T16:33:41.506Z,5.93
2023-12-30T16:38:43.352Z,6.82
2023-12-30T16:43:44.961Z,7.15
2023-12-30T16:48:46.592Z,6.72
2023-12-30T16:53:48.070Z,8.23
2023-12-30T16:58:49.924Z,6.88
2023-12-30T17:03:51.405Z,6.95
2023-12-30T17:08:53.101Z,5.88
2023-12-30T17:13:54.593Z,5.55
2023-12-30T17:18:56.014Z,3.20
2023-12-30T17:23:57.812Z,3.38
2023-12-30T17:28:59.218Z,5.32
2023-12-30T17:34:01.004Z,3.15
2023-12-30T17:39:03.009Z,7.75
2023-12-30T17:44:05.543Z,9.27
2023-12-30T17:49:07.190Z,5.18
2023-12-30T17:54:08.640Z,8.45
2023-12-30T17:59:10.253Z,7.40
2023-12-30T18:04:12.939Z,3.13
2023-12-30T18:09:14.447Z,9.70
2023-12-30T18:14:18.683Z,8.73
2023-12-30T18:19:20.280Z,8.50
2023-12-30T18:24:21.673Z,8.48
2023-12-30T18:29:23.756Z,7.30
2023-12-30T18:34:25.258Z,5.43
2023-12-30T18:39:26.742Z,10.63
2023-12-30T18:44:28.200Z,5.20
2023-12-30T18:49:30.007Z,10.55
2023-12-30T18:54:31.431Z,14.48
2023-12-30T18:59:32.860Z,21.95
2023-12-30T19:04:37.573Z,17.67
2023-12-30T19:09:39.463Z,14.93
2023-12-30T19:14:40.860Z,16.70
2023-12-30T19:19:42.447Z,14.05
2023-12-30T19:24:44.168Z,10.73
2023-12-30T19:29:45.590Z,13.57
2023-12-30T19:34:46.987Z,14.32
2023-12-30T19:39:48.716Z,10.18
2023-12-30T19:44:50.074Z,13.30
2023-12-30T19:49:51.487Z,18.77
2023-12-30T19:54:53.054Z,12.23
2023-12-30T19:59:54.481Z,6.18
2023-12-30T20:04:55.961Z,8.45
2023-12-30T20:09:57.391Z,6.45
2023-12-30T20:14:58.768Z,7.82
2023-12-30T20:20:02.722Z,8.32
2023-12-30T20:25:05.662Z,5.97
2023-12-30T20:30:07.965Z,4.93
2023-12-30T20:35:09.585Z,4.40
2023-12-30T20:40:12.095Z,9.27
2023-12-30T20:45:15.281Z,4.82
2023-12-30T20:50:16.774Z,4.30
2023-12-30T20:55:19.352Z,6.43
2023-12-30T21:00:23.172Z,7.93
2023-12-30T21:05:24.712Z,7.18
2023-12-30T21:10:26.178Z,4.05
2023-12-30T21:15:27.651Z,6.85
2023-12-30T21:20:29.066Z,5.10
2023-12-30T21:25:30.485Z,6.35
2023-12-30T21:30:31.987Z,8.45
2023-12-30T21:35:33.413Z,4.93
2023-12-30T21:40:34.917Z,5.25
2023-12-30T21:45:36.382Z,6.13
2023-12-30T21:50:37.842Z,6.30
2023-12-30T21:55:39.266Z,6.72
2023-12-30T22:00:41.169Z,7.20
2023-12-30T22:05:44.073Z,8.95
2023-12-30T22:10:45.963Z,7.05
2023-12-30T22:15:47.803Z,6.20
2023-12-30T22:20:49.180Z,8.45
2023-12-30T22:25:50.633Z,6.03
2023-12-30T22:30:52.206Z,5.72
2023-12-30T22:35:53.640Z,8.73
2023-12-30T22:40:55.114Z,11.45
2023-12-30T22:45:59.757Z,7.95
2023-12-30T22:51:01.198Z,6.85
2023-12-30T22:56:03.749Z,9.38
2023-12-30T23:01:06.054Z,8.52
2023-12-30T23:06:09.218Z,6.65
2023-12-30T23:11:11.173Z,5.13
2023-12-30T23:16:14.470Z,4.65
2023-12-30T23:21:15.853Z,6.68
2023-12-30T23:26:17.321Z,8.10
2023-12-30T23:31:18.707Z,7.07
2023-12-30T23:36:20.181Z,4.85
2023-12-30T23:41:21.529Z,4.78
2023-12-30T23:46:22.979Z,9.25
2023-12-30T23:51:24.447Z,3.50
2023-12-30T23:56:26.120Z,6.30
